PWSweather.com
Personal Weather Stations
Station Observations
CALONGE
CalongeES 17251

CalongeES 17251

Lat: 41.85972222, Lon: 3.077777778

Elevation: 16

Station Type: Oregon WMR928N

www.calonge-meteoweb.com

High Low Average
Temperature 78.1°F25.6°C 61.9°F16.6°C 69.8°F21.0°C
Dew Point 44.0°F6.7°C 34.5°F1.4°C 39.5°F4.2°C
Winds 17.3 mph 27.8 kmh Calm Calm 7.0 mph WNW11.3 kmh WNW
Wind Gusts 28.7 mph46.2 kmh 4.1 mph6.6 kmh 13.0 mph20.9 kmh
Humidity 51% 22% 35%
Pressure 29.98 in1015.2 mb 29.89 in1012.2 mb -
Precipitation 0.08 in2.0 mm - -
Hour Temp Dew Point Humidity Winds Wind Gusts Pressure Precip Precip Rate Daily Precip Total
12:00 AM 67.3°F19.6°C 40.8°F4.9°C 38% 5.9 mph NW9.5 kmh NW 8.2 mph13.2 kmh 29.98 in1015.2 mb 0.00 in0.0 mm 0.00 in0.0 mm 0.08 in2.0 mm
12:15 AM 66.7°F19.3°C 41.6°F5.3°C 40% 10.0 mph WNW16.1 kmh WNW 13.2 mph21.2 kmh 29.98 in1015.2 mb 0.00 in0.0 mm 0.00 in0.0 mm 0.08 in2.0 mm
12:30 AM 66.4°F19.1°C 42.0°F5.6°C 41% 5.3 mph WNW8.5 kmh WNW 10.5 mph16.9 kmh 29.98 in1015.2 mb 0.00 in0.0 mm 0.00 in0.0 mm 0.08 in2.0 mm
12:45 AM 66.4°F19.1°C 42.0°F5.6°C 41% 7.6 mph NW12.2 kmh NW 10.5 mph16.9 kmh 29.98 in1015.2 mb 0.00 in0.0 mm 0.00 in0.0 mm 0.08 in2.0 mm
01:00 AM 66.2°F19.0°C 42.4°F5.8°C 42% 7.6 mph NW12.2 kmh NW 13.2 mph21.2 kmh 29.98 in1015.2 mb 0.00 in0.0 mm 0.00 in0.0 mm 0.00 in0.0 mm
01:15 AM 66.0°F18.9°C 42.9°F6.1°C 43% 12.0 mph NW19.3 kmh NW 19.6 mph31.5 kmh 29.98 in1015.2 mb 0.00 in0.0 mm 0.00 in0.0 mm 0.00 in0.0 mm
01:30 AM 65.8°F18.8°C 42.7°F5.9°C 43% 9.4 mph WNW15.1 kmh WNW 13.8 mph22.2 kmh 29.98 in1015.2 mb 0.00 in0.0 mm 0.00 in0.0 mm 0.00 in0.0 mm
01:45 AM 65.3°F18.5°C 42.8°F6.0°C 44% 8.8 mph WNW14.2 kmh WNW 10.0 mph16.1 kmh 29.98 in1015.2 mb 0.00 in0.0 mm 0.00 in0.0 mm 0.00 in0.0 mm
02:00 AM 65.3°F18.5°C 42.8°F6.0°C 44% 7.6 mph WNW12.2 kmh WNW 13.8 mph22.2 kmh 29.98 in1015.2 mb 0.00 in0.0 mm 0.00 in0.0 mm 0.00 in0.0 mm
02:15 AM 64.6°F18.1°C 43.3°F6.3°C 46% 8.8 mph WNW14.2 kmh WNW 10.8 mph17.4 kmh 29.95 in1014.2 mb 0.00 in0.0 mm 0.00 in0.0 mm 0.00 in0.0 mm
02:30 AM 64.6°F18.1°C 43.3°F6.3°C 46% 5.3 mph WNW8.5 kmh WNW 10.5 mph16.9 kmh 29.95 in1014.2 mb 0.00 in0.0 mm 0.00 in0.0 mm 0.00 in0.0 mm
02:45 AM 64.6°F18.1°C 43.3°F6.3°C 46% 6.4 mph NW10.3 kmh NW 8.8 mph14.2 kmh 29.95 in1014.2 mb 0.00 in0.0 mm 0.00 in0.0 mm 0.00 in0.0 mm
03:00 AM 63.9°F17.7°C 43.8°F6.6°C 48% 6.4 mph NW10.3 kmh NW 10.0 mph16.1 kmh 29.95 in1014.2 mb 0.00 in0.0 mm 0.00 in0.0 mm 0.00 in0.0 mm
03:15 AM 63.7°F17.6°C 43.6°F6.4°C 48% 5.9 mph NW9.5 kmh NW 8.2 mph13.2 kmh 29.95 in1014.2 mb 0.00 in0.0 mm 0.00 in0.0 mm 0.00 in0.0 mm
03:30 AM 63.5°F17.5°C 44.0°F6.7°C 49% 4.7 mph WNW7.6 kmh WNW 6.4 mph10.3 kmh 29.95 in1014.2 mb 0.00 in0.0 mm 0.00 in0.0 mm 0.00 in0.0 mm
03:45 AM 63.1°F17.3°C 43.7°F6.5°C 49% 4.7 mph NW7.6 kmh NW 7.0 mph11.3 kmh 29.95 in1014.2 mb 0.00 in0.0 mm 0.00 in0.0 mm 0.00 in0.0 mm
04:00 AM 63.0°F17.2°C 44.0°F6.7°C 50% 4.7 mph WNW7.6 kmh WNW 7.0 mph11.3 kmh 29.95 in1014.2 mb 0.00 in0.0 mm 0.00 in0.0 mm 0.00 in0.0 mm
04:15 AM 62.6°F17.0°C 43.7°F6.5°C 50% 4.1 mph WNW6.6 kmh WNW 7.0 mph11.3 kmh 29.95 in1014.2 mb 0.00 in0.0 mm 0.00 in0.0 mm 0.00 in0.0 mm
04:30 AM 62.2°F16.8°C 43.9°F6.6°C 51% 5.9 mph NW9.5 kmh NW 8.2 mph13.2 kmh 29.95 in1014.2 mb 0.00 in0.0 mm 0.00 in0.0 mm 0.00 in0.0 mm
04:45 AM 62.2°F16.8°C 43.9°F6.6°C 51% 7.0 mph NW11.3 kmh NW 7.6 mph12.2 kmh 29.95 in1014.2 mb 0.00 in0.0 mm 0.00 in0.0 mm 0.00 in0.0 mm
05:00 AM 62.1°F16.7°C 43.7°F6.5°C 51% 8.2 mph NW13.2 kmh NW 11.4 mph18.3 kmh 29.95 in1014.2 mb 0.00 in0.0 mm 0.00 in0.0 mm 0.00 in0.0 mm
05:15 AM 62.1°F16.7°C 43.7°F6.5°C 51% 5.9 mph NW9.5 kmh NW 8.2 mph13.2 kmh 29.95 in1014.2 mb 0.00 in0.0 mm 0.00 in0.0 mm 0.00 in0.0 mm
05:30 AM 61.9°F16.6°C 43.5°F6.4°C 51% 5.3 mph NW8.5 kmh NW 8.2 mph13.2 kmh 29.95 in1014.2 mb 0.00 in0.0 mm 0.00 in0.0 mm 0.00 in0.0 mm
05:45 AM 62.1°F16.7°C 43.2°F6.2°C 50% 5.9 mph WNW9.5 kmh WNW 10.0 mph16.1 kmh 29.95 in1014.2 mb 0.00 in0.0 mm 0.00 in0.0 mm 0.00 in0.0 mm
06:00 AM 62.1°F16.7°C 43.2°F6.2°C 50% 5.9 mph NW9.5 kmh NW 10.5 mph16.9 kmh 29.95 in1014.2 mb 0.00 in0.0 mm 0.00 in0.0 mm 0.00 in0.0 mm
06:15 AM 62.1°F16.7°C 42.7°F5.9°C 49% 2.9 mph NW4.7 kmh NW 4.1 mph6.6 kmh 29.95 in1014.2 mb 0.00 in0.0 mm 0.00 in0.0 mm 0.00 in0.0 mm
06:30 AM 62.1°F16.7°C 42.7°F5.9°C 49% 7.6 mph NW12.2 kmh NW 10.5 mph16.9 kmh 29.95 in1014.2 mb 0.00 in0.0 mm 0.00 in0.0 mm 0.00 in0.0 mm
06:45 AM 62.4°F16.9°C 42.5°F5.8°C 48% 5.3 mph NW8.5 kmh NW 10.5 mph16.9 kmh 29.95 in1014.2 mb 0.00 in0.0 mm 0.00 in0.0 mm 0.00 in0.0 mm
07:00 AM 62.6°F17.0°C 42.1°F5.6°C 47% 8.2 mph N13.2 kmh N 7.0 mph11.3 kmh 29.95 in1014.2 mb 0.00 in0.0 mm 0.00 in0.0 mm 0.00 in0.0 mm
07:15 AM 63.5°F17.5°C 41.8°F5.4°C 45% 6.4 mph NW10.3 kmh NW 8.2 mph13.2 kmh 29.95 in1014.2 mb 0.00 in0.0 mm 0.00 in0.0 mm 0.00 in0.0 mm
07:30 AM 63.5°F17.5°C 41.8°F5.4°C 45% 6.4 mph NW10.3 kmh NW 10.8 mph17.4 kmh 29.95 in1014.2 mb 0.00 in0.0 mm 0.00 in0.0 mm 0.00 in0.0 mm
07:45 AM 64.0°F17.8°C 41.1°F5.1°C 43% 7.0 mph NW11.3 kmh NW 10.8 mph17.4 kmh 29.95 in1014.2 mb 0.00 in0.0 mm 0.00 in0.0 mm 0.00 in0.0 mm
08:00 AM 64.6°F18.1°C 41.0°F5.0°C 42% 9.4 mph NW15.1 kmh NW 10.8 mph17.4 kmh 29.95 in1014.2 mb 0.00 in0.0 mm 0.00 in0.0 mm 0.00 in0.0 mm
08:15 AM 64.8°F18.2°C 41.1°F5.1°C 42% 10.0 mph NW16.1 kmh NW 11.4 mph18.3 kmh 29.95 in1014.2 mb 0.00 in0.0 mm 0.00 in0.0 mm 0.00 in0.0 mm
08:30 AM 66.4°F19.1°C 40.7°F4.8°C 39% 7.0 mph NW11.3 kmh NW 13.2 mph21.2 kmh 29.95 in1014.2 mb 0.00 in0.0 mm 0.00 in0.0 mm 0.00 in0.0 mm
08:45 AM 67.3°F19.6°C 40.1°F4.5°C 37% 10.5 mph NW16.9 kmh NW 13.8 mph22.2 kmh 29.95 in1014.2 mb 0.00 in0.0 mm 0.00 in0.0 mm 0.00 in0.0 mm
09:00 AM 67.5°F19.7°C 41.0°F5.0°C 38% 12.0 mph NW19.3 kmh NW 16.1 mph25.9 kmh 29.95 in1014.2 mb 0.00 in0.0 mm 0.00 in0.0 mm 0.00 in0.0 mm
09:15 AM 68.0°F20.0°C 40.0°F4.4°C 36% 10.0 mph NNW16.1 kmh NNW 17.3 mph27.8 kmh 29.95 in1014.2 mb 0.00 in0.0 mm 0.00 in0.0 mm 0.00 in0.0 mm
09:30 AM 68.0°F20.0°C 39.3°F4.1°C 35% 12.0 mph N19.3 kmh N 14.9 mph24.0 kmh 29.95 in1014.2 mb 0.00 in0.0 mm 0.00 in0.0 mm 0.00 in0.0 mm
09:45 AM 68.2°F20.1°C 40.2°F4.6°C 36% 7.0 mph NW11.3 kmh NW 13.2 mph21.2 kmh 29.95 in1014.2 mb 0.00 in0.0 mm 0.00 in0.0 mm 0.00 in0.0 mm
10:15 AM 69.3°F20.7°C 40.4°F4.7°C 35% 8.8 mph N14.2 kmh N 13.2 mph21.2 kmh 29.95 in1014.2 mb 0.00 in0.0 mm 0.00 in0.0 mm 0.00 in0.0 mm
10:30 AM 71.4°F21.9°C 40.8°F4.9°C 33% 8.2 mph NNE13.2 kmh NNE 13.2 mph21.2 kmh 29.95 in1014.2 mb 0.00 in0.0 mm 0.00 in0.0 mm 0.00 in0.0 mm
10:45 AM 71.8°F22.1°C 39.5°F4.2°C 31% 9.4 mph N15.1 kmh N 22.3 mph35.9 kmh 29.95 in1014.2 mb 0.00 in0.0 mm 0.00 in0.0 mm 0.00 in0.0 mm
11:00 AM 73.8°F23.2°C 40.4°F4.7°C 30% 8.2 mph NNW13.2 kmh NNW 11.4 mph18.3 kmh 29.95 in1014.2 mb 0.00 in0.0 mm 0.00 in0.0 mm 0.00 in0.0 mm
11:15 AM 74.7°F23.7°C 39.4°F4.1°C 28% 10.0 mph N16.1 kmh N 16.1 mph25.9 kmh 29.95 in1014.2 mb 0.00 in0.0 mm 0.00 in0.0 mm 0.00 in0.0 mm
11:30 AM 73.8°F23.2°C 38.6°F3.7°C 28% 8.8 mph NW14.2 kmh NW 10.8 mph17.4 kmh 29.95 in1014.2 mb 0.00 in0.0 mm 0.00 in0.0 mm 0.00 in0.0 mm
11:45 AM 73.6°F23.1°C 38.5°F3.6°C 28% 8.8 mph NNW14.2 kmh NNW 17.3 mph27.8 kmh 29.95 in1014.2 mb 0.00 in0.0 mm 0.00 in0.0 mm 0.00 in0.0 mm
12:00 PM 75.0°F23.9°C 37.8°F3.2°C 26% 10.8 mph NW17.4 kmh NW 25.2 mph40.6 kmh 29.92 in1013.2 mb 0.00 in0.0 mm 0.00 in0.0 mm 0.00 in0.0 mm
12:15 PM 75.7°F24.3°C 39.4°F4.1°C 27% 10.0 mph N16.1 kmh N 13.8 mph22.2 kmh 29.92 in1013.2 mb 0.00 in0.0 mm 0.00 in0.0 mm 0.00 in0.0 mm
12:30 PM 75.6°F24.2°C 39.2°F4.0°C 27% 5.9 mph NNW9.5 kmh NNW 17.3 mph27.8 kmh 29.95 in1014.2 mb 0.00 in0.0 mm 0.00 in0.0 mm 0.00 in0.0 mm
12:45 PM 76.5°F24.7°C 40.9°F4.9°C 28% 13.8 mph NNW22.2 kmh NNW 14.4 mph23.2 kmh 29.95 in1014.2 mb 0.00 in0.0 mm 0.00 in0.0 mm 0.00 in0.0 mm
01:00 PM 76.5°F24.7°C 38.0°F3.3°C 25% 8.8 mph N14.2 kmh N 21.4 mph34.4 kmh 29.92 in1013.2 mb 0.00 in0.0 mm 0.00 in0.0 mm 0.00 in0.0 mm
01:15 PM 76.6°F24.8°C 37.1°F2.8°C 24% 8.2 mph NW13.2 kmh NW 17.9 mph28.8 kmh 29.92 in1013.2 mb 0.00 in0.0 mm 0.00 in0.0 mm 0.00 in0.0 mm
01:30 PM 76.6°F24.8°C 36.0°F2.2°C 23% 17.3 mph N27.8 kmh N 19.6 mph31.5 kmh 29.92 in1013.2 mb 0.00 in0.0 mm 0.00 in0.0 mm 0.00 in0.0 mm
01:45 PM 76.8°F24.9°C 35.1°F1.7°C 22% 12.6 mph N20.3 kmh N 20.2 mph32.5 kmh 29.92 in1013.2 mb 0.00 in0.0 mm 0.00 in0.0 mm 0.00 in0.0 mm
02:00 PM 77.0°F25.0°C 36.3°F2.4°C 23% 8.2 mph NNW13.2 kmh NNW 22.0 mph35.4 kmh 29.92 in1013.2 mb 0.00 in0.0 mm 0.00 in0.0 mm 0.00 in0.0 mm
02:15 PM 77.5°F25.3°C 36.8°F2.7°C 23% 12.6 mph NNW20.3 kmh NNW 19.6 mph31.5 kmh 29.92 in1013.2 mb 0.00 in0.0 mm 0.00 in0.0 mm 0.00 in0.0 mm
02:30 PM 77.2°F25.1°C 35.4°F1.9°C 22% 13.2 mph N21.2 kmh N 28.7 mph46.2 kmh 29.92 in1013.2 mb 0.00 in0.0 mm 0.00 in0.0 mm 0.00 in0.0 mm
02:45 PM 77.5°F25.3°C 36.8°F2.7°C 23% 10.8 mph NW17.4 kmh NW 16.7 mph26.9 kmh 29.92 in1013.2 mb 0.00 in0.0 mm 0.00 in0.0 mm 0.00 in0.0 mm
03:00 PM 77.4°F25.2°C 36.6°F2.6°C 23% 10.5 mph NW16.9 kmh NW 19.6 mph31.5 kmh 29.92 in1013.2 mb 0.00 in0.0 mm 0.00 in0.0 mm 0.00 in0.0 mm
03:15 PM 77.7°F25.4°C 38.0°F3.3°C 24% 8.2 mph NNW13.2 kmh NNW 18.5 mph29.8 kmh 29.92 in1013.2 mb 0.00 in0.0 mm 0.00 in0.0 mm 0.00 in0.0 mm
03:30 PM 78.1°F25.6°C 36.1°F2.3°C 22% 6.4 mph N10.3 kmh N 14.4 mph23.2 kmh 29.92 in1013.2 mb 0.00 in0.0 mm 0.00 in0.0 mm 0.00 in0.0 mm
03:45 PM 77.5°F25.3°C 35.7°F2.1°C 22% 10.5 mph N16.9 kmh N 16.1 mph25.9 kmh 29.92 in1013.2 mb 0.00 in0.0 mm 0.00 in0.0 mm 0.00 in0.0 mm
04:00 PM 77.5°F25.3°C 35.7°F2.1°C 22% 8.8 mph NNW14.2 kmh NNW 19.6 mph31.5 kmh 29.92 in1013.2 mb 0.00 in0.0 mm 0.00 in0.0 mm 0.00 in0.0 mm
04:15 PM 77.7°F25.4°C 35.8°F2.1°C 22% 11.4 mph NE18.3 kmh NE 16.7 mph26.9 kmh 29.92 in1013.2 mb 0.00 in0.0 mm 0.00 in0.0 mm 0.00 in0.0 mm
04:30 PM 77.5°F25.3°C 36.8°F2.7°C 23% 7.0 mph NNW11.3 kmh NNW 13.2 mph21.2 kmh 29.92 in1013.2 mb 0.00 in0.0 mm 0.00 in0.0 mm 0.00 in0.0 mm
04:45 PM 77.5°F25.3°C 36.8°F2.7°C 23% 7.6 mph NNE12.2 kmh NNE 16.7 mph26.9 kmh 29.92 in1013.2 mb 0.00 in0.0 mm 0.00 in0.0 mm 0.00 in0.0 mm
05:00 PM 77.2°F25.1°C 35.4°F1.9°C 22% 8.2 mph NE13.2 kmh NE 14.4 mph23.2 kmh 29.92 in1013.2 mb 0.00 in0.0 mm 0.00 in0.0 mm 0.00 in0.0 mm
05:15 PM 77.0°F25.0°C 35.2°F1.8°C 22% 6.4 mph N10.3 kmh N 14.4 mph23.2 kmh 29.92 in1013.2 mb 0.00 in0.0 mm 0.00 in0.0 mm 0.00 in0.0 mm
05:30 PM 77.2°F25.1°C 37.6°F3.1°C 24% 5.3 mph N8.5 kmh N 10.5 mph16.9 kmh 29.92 in1013.2 mb 0.00 in0.0 mm 0.00 in0.0 mm 0.00 in0.0 mm
05:45 PM 77.0°F25.0°C 35.2°F1.8°C 22% 4.1 mph NNW6.6 kmh NNW 13.2 mph21.2 kmh 29.92 in1013.2 mb 0.00 in0.0 mm 0.00 in0.0 mm 0.00 in0.0 mm
06:00 PM 76.6°F24.8°C 36.0°F2.2°C 23% 8.2 mph NW13.2 kmh NW 16.1 mph25.9 kmh 29.89 in1012.2 mb 0.00 in0.0 mm 0.00 in0.0 mm 0.00 in0.0 mm
06:15 PM 76.6°F24.8°C 37.1°F2.8°C 24% 10.5 mph N16.9 kmh N 12.6 mph20.3 kmh 29.89 in1012.2 mb 0.00 in0.0 mm 0.00 in0.0 mm 0.00 in0.0 mm
06:30 PM 76.1°F24.5°C 35.6°F2.0°C 23% 8.8 mph NNW14.2 kmh NNW 13.2 mph21.2 kmh 29.89 in1012.2 mb 0.00 in0.0 mm 0.00 in0.0 mm 0.00 in0.0 mm
06:45 PM 75.9°F24.4°C 35.4°F1.9°C 23% 8.2 mph N13.2 kmh N 17.3 mph27.8 kmh 29.89 in1012.2 mb 0.00 in0.0 mm 0.00 in0.0 mm 0.00 in0.0 mm
07:00 PM 75.4°F24.1°C 35.0°F1.7°C 23% 7.0 mph NNW11.3 kmh NNW 13.2 mph21.2 kmh 29.89 in1012.2 mb 0.00 in0.0 mm 0.00 in0.0 mm 0.00 in0.0 mm
07:15 PM 74.8°F23.8°C 34.5°F1.4°C 23% 7.6 mph NW12.2 kmh NW 17.3 mph27.8 kmh 29.89 in1012.2 mb 0.00 in0.0 mm 0.00 in0.0 mm 0.00 in0.0 mm
07:30 PM 74.1°F23.4°C 35.0°F1.7°C 24% 5.9 mph NW9.5 kmh NW 11.4 mph18.3 kmh 29.89 in1012.2 mb 0.00 in0.0 mm 0.00 in0.0 mm 0.00 in0.0 mm
07:45 PM 72.9°F22.7°C 36.0°F2.2°C 26% 7.0 mph NW11.3 kmh NW 10.8 mph17.4 kmh 29.89 in1012.2 mb 0.00 in0.0 mm 0.00 in0.0 mm 0.00 in0.0 mm
08:00 PM 72.1°F22.3°C 35.3°F1.8°C 26% 4.7 mph NW7.6 kmh NW 11.4 mph18.3 kmh 29.89 in1012.2 mb 0.00 in0.0 mm 0.00 in0.0 mm 0.00 in0.0 mm
08:15 PM 71.8°F22.1°C 36.0°F2.2°C 27% 4.1 mph NW6.6 kmh NW 10.0 mph16.1 kmh 29.89 in1012.2 mb 0.00 in0.0 mm 0.00 in0.0 mm 0.00 in0.0 mm
08:30 PM 70.9°F21.6°C 37.9°F3.3°C 30% 5.3 mph NW8.5 kmh NW 8.8 mph14.2 kmh 29.89 in1012.2 mb 0.00 in0.0 mm 0.00 in0.0 mm 0.00 in0.0 mm
08:45 PM 70.2°F21.2°C 38.9°F3.8°C 32% 5.9 mph NW9.5 kmh NW 8.8 mph14.2 kmh 29.89 in1012.2 mb 0.00 in0.0 mm 0.00 in0.0 mm 0.00 in0.0 mm
09:00 PM 69.1°F20.6°C 38.8°F3.8°C 33% Calm Calm 6.4 mph10.3 kmh 29.89 in1012.2 mb 0.00 in0.0 mm 0.00 in0.0 mm 0.00 in0.0 mm
09:15 PM 68.4°F20.2°C 38.9°F3.8°C 34% Calm Calm 8.2 mph13.2 kmh 29.89 in1012.2 mb 0.00 in0.0 mm 0.00 in0.0 mm 0.00 in0.0 mm
09:30 PM 68.2°F20.1°C 38.7°F3.7°C 34% 4.1 mph NW6.6 kmh NW 7.0 mph11.3 kmh 29.89 in1012.2 mb 0.00 in0.0 mm 0.00 in0.0 mm 0.00 in0.0 mm
09:45 PM 67.5°F19.7°C 38.8°F3.8°C 35% 6.4 mph NW10.3 kmh NW 8.2 mph13.2 kmh 29.89 in1012.2 mb 0.00 in0.0 mm 0.00 in0.0 mm 0.00 in0.0 mm
10:00 PM 67.1°F19.5°C 38.5°F3.6°C 35% 4.7 mph NW7.6 kmh NW 8.2 mph13.2 kmh 29.89 in1012.2 mb 0.00 in0.0 mm 0.00 in0.0 mm 0.00 in0.0 mm
10:15 PM 67.3°F19.6°C 37.9°F3.3°C 34% 5.3 mph NW8.5 kmh NW 7.6 mph12.2 kmh 29.92 in1013.2 mb 0.00 in0.0 mm 0.00 in0.0 mm 0.00 in0.0 mm
10:30 PM 67.3°F19.6°C 37.9°F3.3°C 34% 5.9 mph NNW9.5 kmh NNW 7.6 mph12.2 kmh 29.92 in1013.2 mb 0.00 in0.0 mm 0.00 in0.0 mm 0.00 in0.0 mm
10:45 PM 66.9°F19.4°C 38.4°F3.6°C 35% 4.1 mph NW6.6 kmh NW 5.3 mph8.5 kmh 29.92 in1013.2 mb 0.00 in0.0 mm 0.00 in0.0 mm 0.00 in0.0 mm
11:00 PM 66.4°F19.1°C 37.9°F3.3°C 35% 4.1 mph NW6.6 kmh NW 7.6 mph12.2 kmh 29.89 in1012.2 mb 0.00 in0.0 mm 0.00 in0.0 mm 0.00 in0.0 mm
11:15 PM 66.2°F19.0°C 37.7°F3.2°C 35% 3.5 mph NNW5.6 kmh NNW 8.2 mph13.2 kmh 29.89 in1012.2 mb 0.00 in0.0 mm 0.00 in0.0 mm 0.00 in0.0 mm
11:30 PM 66.2°F19.0°C 38.4°F3.6°C 36% 2.9 mph NNW4.7 kmh NNW 7.6 mph12.2 kmh 29.89 in1012.2 mb 0.00 in0.0 mm 0.00 in0.0 mm 0.00 in0.0 mm
11:45 PM 65.7°F18.7°C 38.7°F3.7°C 37% Calm Calm 8.2 mph13.2 kmh 29.89 in1012.2 mb 0.00 in0.0 mm 0.00 in0.0 mm 0.00 in0.0 mm